Terminal Aerodrome Forecast
Issued by NWS

Home | Current Version | Previous Version | Text Only | Print | Product List | Glossary On
Versions: 1 2 3 4 5 6 7 8 9 10 11 12 13 14 15
000
FTUS43 KSGF 231600 AAA
TAFJLN
TAF AMD
KJLN 231600Z 2316/2412 33009KT P6SM VCTS BKN015 OVC025CB
      TEMPO 2316/2318 3SM -TSRA BR
     FM231900 36010G19KT P6SM BKN050
     FM232100 01010KT P6SM SCT140
     FM240100 36006KT P6SM FEW200=

USA.gov is the U.S. government's official web portal to all federal, state and local government web resources and services.